createdAt,value
2017-10-17T00:01:17.288Z,7.25
2017-10-17T00:03:43.922Z,6.40
2017-10-17T00:06:10.539Z,6.65
2017-10-17T00:08:37.712Z,6.10
2017-10-17T00:11:03.928Z,6.62
2017-10-17T00:13:30.172Z,6.25
2017-10-17T00:15:56.655Z,6.30
2017-10-17T00:18:22.859Z,6.47
2017-10-17T00:20:49.089Z,5.57
2017-10-17T00:23:15.972Z,5.60
2017-10-17T00:25:42.186Z,5.97
2017-10-17T00:28:08.412Z,5.00
2017-10-17T00:30:50.384Z,5.70
2017-10-17T00:33:16.628Z,5.68
2017-10-17T00:35:43.651Z,5.10
2017-10-17T00:38:09.886Z,5.60
2017-10-17T00:40:36.094Z,5.35
2017-10-17T00:43:02.319Z,5.03
2017-10-17T00:45:28.548Z,5.78
2017-10-17T00:47:54.799Z,6.30
2017-10-17T00:50:21.044Z,5.55
2017-10-17T00:52:47.281Z,6.28
2017-10-17T00:55:13.522Z,5.97
2017-10-17T00:57:39.734Z,6.12
2017-10-17T01:00:05.958Z,6.22
2017-10-17T01:02:32.172Z,5.53
2017-10-17T01:04:58.474Z,6.32
2017-10-17T01:07:25.084Z,5.65
2017-10-17T01:09:51.299Z,6.50
2017-10-17T01:12:17.555Z,6.40
2017-10-17T01:14:44.164Z,6.00
2017-10-17T01:17:10.392Z,7.00
2017-10-17T01:19:36.596Z,7.07
2017-10-17T01:22:02.854Z,7.22
2017-10-17T01:24:29.071Z,6.72
2017-10-17T01:26:55.312Z,6.80
2017-10-17T01:29:25.419Z,7.75
2017-10-17T01:31:51.642Z,6.85
2017-10-17T01:34:19.799Z,7.07
2017-10-17T01:36:46.688Z,7.43
2017-10-17T01:39:14.664Z,7.00
2017-10-17T01:41:41.347Z,7.05
2017-10-17T01:44:16.727Z,7.78
2017-10-17T01:46:47.809Z,6.90
2017-10-17T01:49:30.770Z,6.57
2017-10-17T01:52:11.881Z,7.05
2017-10-17T01:54:39.315Z,7.18
2017-10-17T01:57:05.631Z,6.97
2017-10-17T01:59:36.796Z,6.43
2017-10-17T02:02:03.015Z,7.20
2017-10-17T02:04:29.236Z,7.30
2017-10-17T02:06:55.444Z,6.78
2017-10-17T02:09:21.683Z,6.50
2017-10-17T02:11:47.891Z,7.22
2017-10-17T02:14:14.116Z,7.20
2017-10-17T02:16:40.327Z,7.35
2017-10-17T02:19:23.179Z,7.45
2017-10-17T02:21:52.260Z,7.22
2017-10-17T02:24:18.498Z,7.50
2017-10-17T02:26:44.752Z,7.22
2017-10-17T02:29:11.910Z,7.75
2017-10-17T02:31:38.161Z,7.57
2017-10-17T02:34:18.330Z,8.60
2017-10-17T02:36:44.556Z,9.65
2017-10-17T02:39:10.757Z,9.80
2017-10-17T02:41:37.369Z,10.13
2017-10-17T02:44:03.612Z,8.90
2017-10-17T02:46:30.695Z,7.32
2017-10-17T02:49:04.122Z,7.37
2017-10-17T02:51:30.369Z,7.05
2017-10-17T02:53:56.600Z,7.78
2017-10-17T02:56:22.840Z,7.65
2017-10-17T02:58:49.071Z,7.20
2017-10-17T03:01:15.324Z,6.68
2017-10-17T03:03:42.497Z,7.18
2017-10-17T03:06:08.818Z,8.70
2017-10-17T03:08:35.051Z,7.40
2017-10-17T03:11:01.292Z,6.95
2017-10-17T03:13:28.306Z,7.22
2017-10-17T03:16:07.333Z,7.40
2017-10-17T03:18:33.935Z,7.85
2017-10-17T03:21:07.189Z,8.20
2017-10-17T03:23:33.438Z,7.35
2017-10-17T03:25:59.688Z,8.38
2017-10-17T03:28:28.898Z,7.93
2017-10-17T03:30:55.142Z,9.90
2017-10-17T03:33:27.667Z,9.98
2017-10-17T03:35:53.904Z,10.82
2017-10-17T03:38:22.964Z,9.90
2017-10-17T03:40:51.187Z,10.52
2017-10-17T03:43:37.116Z,15.73
2017-10-17T03:46:03.347Z,10.75
2017-10-17T03:48:29.627Z,11.50
2017-10-17T03:51:03.731Z,9.55
2017-10-17T03:53:36.804Z,11.88
2017-10-17T03:56:03.072Z,12.75
2017-10-17T03:58:40.011Z,10.30
2017-10-17T04:01:06.242Z,10.77
2017-10-17T04:03:32.451Z,10.80
2017-10-17T04:06:02.497Z,11.00
2017-10-17T04:08:30.539Z,10.20
2017-10-17T04:11:16.688Z,13.48
2017-10-17T04:16:48.496Z,11.02
2017-10-17T04:19:23.829Z,9.50
2017-10-17T04:22:08.104Z,11.60
2017-10-17T04:24:41.224Z,8.93
2017-10-17T04:27:30.183Z,9.95
2017-10-17T04:30:14.254Z,10.05
2017-10-17T04:32:48.186Z,10.65
2017-10-17T04:35:15.600Z,9.75
2017-10-17T04:37:42.781Z,9.90
2017-10-17T04:40:15.851Z,11.15
2017-10-17T04:48:56.166Z,10.32
2017-10-17T04:51:27.194Z,10.52
2017-10-17T04:56:55.111Z,10.38
2017-10-17T04:59:25.553Z,10.30
2017-10-17T05:02:06.661Z,10.27
2017-10-17T05:04:50.419Z,8.75
2017-10-17T05:07:19.428Z,12.73
2017-10-17T05:09:49.630Z,10.02
2017-10-17T05:12:17.786Z,11.98
2017-10-17T05:14:43.987Z,10.07
2017-10-17T05:17:17.866Z,11.12
2017-10-17T05:23:06.542Z,14.48
2017-10-17T05:25:36.047Z,12.95
2017-10-17T05:31:14.518Z,11.40
2017-10-17T05:33:47.755Z,12.90
2017-10-17T05:36:17.715Z,13.35
2017-10-17T05:38:43.978Z,12.23
2017-10-17T05:41:10.214Z,10.85
2017-10-17T05:43:41.171Z,15.02
2017-10-17T05:46:07.379Z,10.40
2017-10-17T05:48:33.854Z,10.38
2017-10-17T05:51:05.206Z,9.85
2017-10-17T05:53:31.403Z,10.43
2017-10-17T05:55:57.584Z,9.38
2017-10-17T05:58:23.820Z,11.52
2017-10-17T06:00:50.028Z,11.77
2017-10-17T06:03:16.229Z,11.27
2017-10-17T06:05:42.414Z,14.80
2017-10-17T06:08:08.608Z,11.05
2017-10-17T06:10:34.841Z,13.95
2017-10-17T06:13:01.026Z,12.13
2017-10-17T06:15:27.219Z,17.83
2017-10-17T06:17:53.406Z,12.65
2017-10-17T06:20:19.599Z,13.93
2017-10-17T06:22:46.810Z,13.43
2017-10-17T06:25:13.010Z,14.52
2017-10-17T06:27:39.233Z,13.52
2017-10-17T06:30:05.444Z,16.87
2017-10-17T06:32:31.655Z,13.68
2017-10-17T06:34:57.852Z,14.05
2017-10-17T06:37:24.043Z,14.85
2017-10-17T06:39:50.618Z,15.48
2017-10-17T06:42:16.829Z,13.25
2017-10-17T06:44:43.044Z,14.82
2017-10-17T06:47:09.332Z,13.75
2017-10-17T06:49:35.574Z,11.50
2017-10-17T06:52:01.808Z,13.20
2017-10-17T06:54:28.052Z,13.80
2017-10-17T06:56:54.633Z,12.90
2017-10-17T06:59:20.864Z,13.93
2017-10-17T07:01:47.069Z,14.52
2017-10-17T07:04:13.292Z,14.82
2017-10-17T07:06:39.541Z,13.40
2017-10-17T07:09:05.779Z,16.27
2017-10-17T07:11:32.016Z,15.23
2017-10-17T07:13:58.215Z,15.38
2017-10-17T07:16:24.399Z,15.25
2017-10-17T07:18:50.598Z,14.50
2017-10-17T07:21:16.841Z,13.85
2017-10-17T07:23:43.105Z,14.75
2017-10-17T07:26:09.367Z,15.07
2017-10-17T07:28:35.593Z,14.68
2017-10-17T07:31:01.781Z,16.27
2017-10-17T07:33:28.383Z,18.80
2017-10-17T07:35:54.616Z,17.17
2017-10-17T07:38:20.832Z,18.42
2017-10-17T07:40:47.069Z,19.00
2017-10-17T07:43:13.324Z,19.65
2017-10-17T07:45:39.576Z,19.02
2017-10-17T07:48:05.829Z,22.42
2017-10-17T07:50:32.116Z,22.70
2017-10-17T07:52:58.774Z,20.30
2017-10-17T07:55:25.016Z,21.50
2017-10-17T07:57:51.237Z,22.52
2017-10-17T08:00:17.799Z,24.98
2017-10-17T08:02:44.003Z,24.55
2017-10-17T08:05:10.262Z,26.10
2017-10-17T08:07:36.508Z,18.08
2017-10-17T08:10:02.764Z,17.60
2017-10-17T08:12:29.381Z,19.60
2017-10-17T08:14:55.582Z,19.67
2017-10-17T08:17:21.791Z,19.90
2017-10-17T08:19:47.954Z,23.65
2017-10-17T08:22:14.153Z,22.85
2017-10-17T08:24:40.357Z,17.20
2017-10-17T08:27:06.624Z,17.08
2017-10-17T08:29:33.764Z,15.85
2017-10-17T08:31:59.975Z,16.12
2017-10-17T08:34:26.199Z,16.15
2017-10-17T08:36:52.406Z,15.85
2017-10-17T08:39:18.657Z,16.52
2017-10-17T08:41:45.477Z,17.40
2017-10-17T08:44:11.676Z,16.58
2017-10-17T08:46:37.917Z,20.33
2017-10-17T08:49:04.560Z,18.85
2017-10-17T08:51:31.183Z,20.17
2017-10-17T08:53:57.784Z,19.85
2017-10-17T08:56:24.006Z,18.12
2017-10-17T08:58:50.208Z,18.05
2017-10-17T09:01:16.492Z,19.27
2017-10-17T09:03:42.720Z,18.60
2017-10-17T09:06:08.949Z,18.65
2017-10-17T09:08:35.160Z,18.48
2017-10-17T09:11:01.384Z,19.15
2017-10-17T09:13:27.600Z,18.10
2017-10-17T09:15:53.816Z,20.55
2017-10-17T09:18:20.053Z,21.85
2017-10-17T09:20:46.246Z,25.20
2017-10-17T09:23:12.444Z,26.90
2017-10-17T09:25:38.651Z,25.52
2017-10-17T09:28:05.534Z,23.83
2017-10-17T09:30:32.174Z,23.83
2017-10-17T09:32:59.707Z,22.05
2017-10-17T09:35:25.968Z,22.62
2017-10-17T09:37:52.256Z,22.87
2017-10-17T09:40:19.283Z,23.62
2017-10-17T09:42:45.522Z,19.95
2017-10-17T09:45:11.712Z,19.67
2017-10-17T09:47:37.948Z,19.07
2017-10-17T09:50:04.154Z,22.00
2017-10-17T09:52:30.378Z,20.03
2017-10-17T09:54:56.581Z,19.27
2017-10-17T09:57:22.790Z,17.50
2017-10-17T09:59:49.006Z,19.03
2017-10-17T10:02:15.273Z,18.73
2017-10-17T10:04:41.487Z,17.67
2017-10-17T10:07:07.691Z,19.63
2017-10-17T10:09:33.906Z,17.50
2017-10-17T10:12:00.112Z,18.10
2017-10-17T10:14:26.365Z,14.80
2017-10-17T10:16:52.580Z,16.37
2017-10-17T10:19:18.779Z,17.23
2017-10-17T10:21:45.322Z,16.73
2017-10-17T10:24:12.115Z,15.33
2017-10-17T10:26:38.364Z,16.40
2017-10-17T10:29:04.569Z,15.97
2017-10-17T10:31:30.749Z,16.80
2017-10-17T10:33:57.299Z,16.80
2017-10-17T10:36:23.524Z,15.20
2017-10-17T10:38:49.742Z,14.37
2017-10-17T10:41:16.588Z,14.97
2017-10-17T10:43:42.915Z,16.63
2017-10-17T10:46:09.128Z,14.70
2017-10-17T10:48:35.744Z,15.57
2017-10-17T10:51:01.961Z,16.53
2017-10-17T10:53:28.249Z,13.47
2017-10-17T10:55:54.529Z,17.00
2017-10-17T10:58:20.754Z,14.40
2017-10-17T11:00:46.972Z,15.33
2017-10-17T11:03:13.181Z,14.90
2017-10-17T11:05:39.395Z,15.17
2017-10-17T11:08:05.622Z,15.47
2017-10-17T11:10:31.838Z,15.10
2017-10-17T11:12:58.056Z,14.77
2017-10-17T11:15:24.635Z,15.30
2017-10-17T11:17:50.878Z,14.10
2017-10-17T11:20:17.069Z,14.60
2017-10-17T11:22:43.289Z,14.57
2017-10-17T11:25:09.586Z,13.87
2017-10-17T11:27:36.191Z,14.30
2017-10-17T11:30:02.488Z,13.90
2017-10-17T11:32:28.711Z,15.43
2017-10-17T11:34:55.449Z,13.90
2017-10-17T11:37:21.652Z,14.93
2017-10-17T11:39:48.723Z,14.07
2017-10-17T11:42:27.262Z,13.23
2017-10-17T11:44:53.528Z,12.80
2017-10-17T11:47:19.777Z,14.17
2017-10-17T11:49:46.438Z,13.77
2017-10-17T11:52:12.688Z,14.50
2017-10-17T11:54:38.928Z,14.90
2017-10-17T11:57:05.159Z,13.60
2017-10-17T11:59:31.387Z,13.87
2017-10-17T12:01:57.623Z,13.70
2017-10-17T12:04:23.838Z,11.77
2017-10-17T12:06:50.088Z,12.07
2017-10-17T12:09:16.322Z,13.17
2017-10-17T12:11:42.581Z,11.43
2017-10-17T12:14:08.833Z,11.50
2017-10-17T12:16:35.056Z,10.60
2017-10-17T12:19:02.084Z,9.50
2017-10-17T12:21:28.291Z,10.47
2017-10-17T12:23:54.521Z,10.23
2017-10-17T12:26:20.776Z,10.43
2017-10-17T12:28:47.042Z,9.00
2017-10-17T12:31:13.399Z,8.63
2017-10-17T12:33:39.641Z,9.60
2017-10-17T12:36:06.253Z,10.80
2017-10-17T12:38:32.491Z,9.80
2017-10-17T12:40:58.742Z,10.40
2017-10-17T12:43:24.959Z,10.17
2017-10-17T12:45:51.768Z,9.73
2017-10-17T12:48:17.991Z,10.53
2017-10-17T12:50:44.201Z,10.40
2017-10-17T12:53:10.442Z,9.70
2017-10-17T12:55:36.682Z,10.17
2017-10-17T12:58:02.918Z,9.70
2017-10-17T13:00:29.180Z,9.93
2017-10-17T13:02:55.413Z,9.20
2017-10-17T13:05:22.551Z,8.87
2017-10-17T13:07:49.181Z,7.80
2017-10-17T13:10:15.422Z,8.70
2017-10-17T13:12:41.976Z,8.53
2017-10-17T13:15:08.196Z,8.60
2017-10-17T13:17:34.432Z,8.27
2017-10-17T13:20:00.683Z,9.10
2017-10-17T13:22:26.886Z,8.37
2017-10-17T13:24:53.104Z,8.83
2017-10-17T13:27:19.336Z,8.60
2017-10-17T13:29:45.550Z,8.47
2017-10-17T13:32:11.818Z,9.30
2017-10-17T13:34:38.279Z,9.10
2017-10-17T13:37:04.543Z,7.80
2017-10-17T13:39:31.140Z,7.93
2017-10-17T13:41:57.387Z,7.70
2017-10-17T13:44:23.583Z,9.70
2017-10-17T13:46:49.803Z,8.40
2017-10-17T13:49:16.039Z,8.60
2017-10-17T13:51:42.305Z,8.77
2017-10-17T13:54:08.511Z,5.87
2017-10-17T13:56:34.698Z,6.50
2017-10-17T13:59:01.823Z,7.97
2017-10-17T14:01:28.393Z,7.73
2017-10-17T14:03:54.624Z,8.00
2017-10-17T14:06:20.869Z,7.63
2017-10-17T14:08:47.099Z,8.67
2017-10-17T14:11:13.982Z,7.80
2017-10-17T14:13:40.221Z,8.60
2017-10-17T14:16:06.851Z,8.90
2017-10-17T14:18:33.441Z,7.70
2017-10-17T14:20:59.751Z,8.93
2017-10-17T14:23:25.969Z,9.47
2017-10-17T14:25:52.213Z,8.10
2017-10-17T14:28:18.438Z,8.33
2017-10-17T14:30:44.660Z,7.67
2017-10-17T14:33:10.881Z,8.20
2017-10-17T14:35:37.070Z,7.60
2017-10-17T14:38:03.288Z,7.63
2017-10-17T14:40:29.971Z,9.30
2017-10-17T14:42:56.436Z,10.23
2017-10-17T14:45:22.642Z,9.87
2017-10-17T14:47:48.837Z,9.07
2017-10-17T14:50:15.440Z,8.57
2017-10-17T14:52:41.642Z,9.43
2017-10-17T14:55:07.850Z,8.57
2017-10-17T14:57:34.132Z,8.93
2017-10-17T15:00:00.376Z,9.00
2017-10-17T15:02:26.587Z,9.60
2017-10-17T15:04:52.815Z,10.20
2017-10-17T15:07:19.004Z,10.40
2017-10-17T15:09:45.229Z,9.17
2017-10-17T15:12:11.968Z,10.10
2017-10-17T15:14:38.180Z,8.57
2017-10-17T15:17:04.812Z,10.37
2017-10-17T15:19:31.028Z,10.27
2017-10-17T15:21:57.627Z,11.00
2017-10-17T15:24:23.833Z,9.90
2017-10-17T15:26:50.087Z,9.43
2017-10-17T15:29:16.299Z,9.70
2017-10-17T15:31:42.534Z,10.30
2017-10-17T15:34:08.750Z,9.97
2017-10-17T15:36:34.980Z,11.17
2017-10-17T15:39:01.216Z,10.40
2017-10-17T15:41:27.462Z,11.30
2017-10-17T15:43:53.667Z,10.57
2017-10-17T15:46:19.882Z,9.03
2017-10-17T15:48:46.372Z,11.20
2017-10-17T15:51:12.592Z,9.90
2017-10-17T15:53:38.842Z,11.27
2017-10-17T15:56:05.570Z,11.87
2017-10-17T15:58:31.742Z,11.60
2017-10-17T16:00:58.584Z,13.67
2017-10-17T16:03:24.789Z,12.50
2017-10-17T16:05:51.423Z,12.67
2017-10-17T16:08:18.003Z,11.60
2017-10-17T16:10:44.229Z,11.67
2017-10-17T16:13:10.463Z,10.60
2017-10-17T16:15:36.729Z,11.33
2017-10-17T16:18:03.334Z,11.93
2017-10-17T16:20:29.535Z,12.00
2017-10-17T16:22:55.770Z,10.90
2017-10-17T16:25:21.993Z,12.10
2017-10-17T16:27:48.205Z,11.27
2017-10-17T16:30:14.398Z,10.87
2017-10-17T16:32:40.620Z,9.90
2017-10-17T16:35:06.919Z,10.13
2017-10-17T16:37:33.220Z,10.10
2017-10-17T16:39:59.477Z,11.03
2017-10-17T16:42:25.688Z,10.63
2017-10-17T16:44:51.917Z,10.83
2017-10-17T16:47:18.159Z,10.23
2017-10-17T16:49:44.417Z,10.50
2017-10-17T16:52:10.682Z,11.13
2017-10-17T16:54:36.937Z,10.10
2017-10-17T16:57:03.247Z,11.00
2017-10-17T16:59:29.494Z,11.10
2017-10-17T17:01:55.840Z,11.97
2017-10-17T17:04:22.261Z,12.03
2017-10-17T17:06:48.479Z,10.17
2017-10-17T17:09:14.696Z,10.97
2017-10-17T17:11:40.897Z,11.33
2017-10-17T17:14:07.154Z,11.73
2017-10-17T17:16:33.400Z,11.37
2017-10-17T17:18:59.660Z,12.70
2017-10-17T17:21:27.091Z,10.90
2017-10-17T17:23:53.392Z,10.57
2017-10-17T17:26:19.782Z,11.40
2017-10-17T17:28:46.035Z,9.87
2017-10-17T17:31:12.635Z,10.27
2017-10-17T17:33:38.893Z,9.80
2017-10-17T17:36:05.171Z,10.20
2017-10-17T17:38:31.412Z,8.57
2017-10-17T17:41:03.366Z,10.10
2017-10-17T17:43:29.598Z,11.27
2017-10-17T17:45:55.883Z,9.77
2017-10-17T17:48:22.577Z,9.50
2017-10-17T17:50:49.020Z,9.77
2017-10-17T17:53:15.424Z,10.43
2017-10-17T17:55:41.795Z,10.15
2017-10-17T17:58:09.263Z,10.57
2017-10-17T18:00:35.553Z,10.32
2017-10-17T18:03:02.017Z,10.80
2017-10-17T18:05:28.513Z,10.07
2017-10-17T18:07:55.204Z,9.52
2017-10-17T18:10:21.410Z,10.15
2017-10-17T18:12:47.654Z,10.07
2017-10-17T18:15:13.900Z,10.02
2017-10-17T18:17:40.481Z,9.52
2017-10-17T18:20:06.786Z,10.18
2017-10-17T18:22:33.457Z,9.70
2017-10-17T18:25:04.954Z,11.05
2017-10-17T18:27:31.948Z,10.07
2017-10-17T18:29:58.667Z,10.18
2017-10-17T18:32:25.010Z,10.20
2017-10-17T18:34:51.298Z,9.00
2017-10-17T18:37:17.638Z,10.20
2017-10-17T18:39:43.962Z,9.00
2017-10-17T18:42:10.247Z,9.05
2017-10-17T18:44:36.558Z,9.02
2017-10-17T18:47:03.494Z,9.98
2017-10-17T18:49:29.759Z,9.32
2017-10-17T18:51:56.547Z,9.40
2017-10-17T18:54:23.265Z,8.70
2017-10-17T18:56:49.926Z,9.23
2017-10-17T18:59:16.367Z,9.63
2017-10-17T19:01:43.265Z,10.90
2017-10-17T19:04:09.553Z,10.40
2017-10-17T19:06:36.192Z,9.98
2017-10-17T19:09:03.012Z,10.73
2017-10-17T19:11:29.938Z,10.45
2017-10-17T19:13:57.342Z,10.20
2017-10-17T19:16:24.128Z,10.40
2017-10-17T19:18:50.469Z,9.00
2017-10-17T19:21:17.204Z,10.95
2017-10-17T19:23:44.468Z,10.02
2017-10-17T19:26:11.426Z,11.12
2017-10-17T19:28:38.598Z,12.10
2017-10-17T19:31:04.931Z,12.05
2017-10-17T19:33:31.306Z,13.52
2017-10-17T19:35:58.214Z,13.05
2017-10-17T19:38:24.558Z,12.50
2017-10-17T19:40:50.953Z,13.88
2017-10-17T19:43:17.254Z,12.48
2017-10-17T19:45:43.547Z,13.60
2017-10-17T19:48:10.439Z,13.20
2017-10-17T19:50:37.381Z,12.55
2017-10-17T19:53:03.662Z,13.30
2017-10-17T19:55:30.010Z,12.98
2017-10-17T19:57:56.383Z,14.52
2017-10-17T20:00:22.702Z,13.35
2017-10-17T20:02:48.929Z,13.55
2017-10-17T20:05:15.263Z,13.45
2017-10-17T20:07:41.586Z,13.73
2017-10-17T20:10:08.317Z,12.93
2017-10-17T20:12:35.117Z,13.48
2017-10-17T20:15:01.643Z,14.65
2017-10-17T20:17:27.941Z,13.05
2017-10-17T20:19:54.982Z,12.98
2017-10-17T20:22:21.301Z,15.35
2017-10-17T20:24:47.568Z,15.43
2017-10-17T20:27:14.501Z,13.77
2017-10-17T20:29:40.818Z,12.60
2017-10-17T20:32:07.076Z,14.30
2017-10-17T20:34:33.497Z,13.07
2017-10-17T20:36:59.826Z,11.65
2017-10-17T20:39:26.553Z,13.10
2017-10-17T20:41:52.971Z,12.00
2017-10-17T20:44:19.229Z,12.37
2017-10-17T20:46:45.598Z,11.60
2017-10-17T20:49:11.869Z,11.80
2017-10-17T20:51:38.156Z,12.10
2017-10-17T20:54:04.370Z,13.65
2017-10-17T20:56:30.705Z,13.00
2017-10-17T20:58:56.932Z,13.25
2017-10-17T21:01:23.890Z,12.82
2017-10-17T21:03:50.240Z,13.18
2017-10-17T21:06:16.457Z,13.70
2017-10-17T21:08:42.693Z,12.43
2017-10-17T21:11:09.602Z,13.30
2017-10-17T21:13:35.894Z,13.50
2017-10-17T21:16:02.192Z,13.13
2017-10-17T21:18:28.765Z,12.70
2017-10-17T21:20:55.365Z,13.30
2017-10-17T21:23:21.597Z,12.43
2017-10-17T21:25:47.934Z,13.40
2017-10-17T21:28:14.188Z,12.15
2017-10-17T21:30:40.445Z,13.55
2017-10-17T21:33:06.687Z,12.80
2017-10-17T21:35:32.910Z,11.45
2017-10-17T21:37:59.154Z,12.48
2017-10-17T21:40:25.352Z,11.45
2017-10-17T21:42:51.551Z,12.57
2017-10-17T21:45:17.804Z,11.80
2017-10-17T21:47:44.036Z,12.95
2017-10-17T21:50:10.244Z,11.82
2017-10-17T21:52:36.460Z,11.45
2017-10-17T21:55:02.953Z,12.35
2017-10-17T21:57:29.203Z,11.18
2017-10-17T21:59:55.804Z,11.98
2017-10-17T22:02:22.022Z,12.30
2017-10-17T22:04:48.229Z,11.25
2017-10-17T22:07:14.426Z,11.75
2017-10-17T22:09:40.627Z,11.95
2017-10-17T22:12:06.831Z,12.37
2017-10-17T22:14:33.059Z,12.10
2017-10-17T22:16:59.373Z,11.48
2017-10-17T22:19:25.675Z,11.55
2017-10-17T22:21:52.243Z,10.82
2017-10-17T22:24:18.505Z,11.32
2017-10-17T22:26:44.859Z,11.35
2017-10-17T22:29:11.564Z,11.00
2017-10-17T22:31:37.767Z,11.50
2017-10-17T22:34:03.968Z,10.45
2017-10-17T22:36:30.556Z,11.12
2017-10-17T22:38:56.790Z,9.25
2017-10-17T22:41:23.037Z,10.07
2017-10-17T22:43:49.250Z,9.73
2017-10-17T22:46:15.480Z,10.60
2017-10-17T22:48:41.688Z,9.73
2017-10-17T22:51:07.899Z,9.32
2017-10-17T22:53:34.121Z,9.90
2017-10-17T22:56:00.315Z,11.95
2017-10-17T22:58:26.883Z,11.77
2017-10-17T23:00:53.081Z,11.40
2017-10-17T23:03:19.308Z,11.52
2017-10-17T23:05:45.511Z,10.32
2017-10-17T23:08:11.970Z,11.48
2017-10-17T23:10:38.583Z,12.32
2017-10-17T23:13:04.804Z,11.75
2017-10-17T23:15:31.007Z,13.40
2017-10-17T23:18:09.406Z,11.93
2017-10-17T23:20:35.630Z,12.37
2017-10-17T23:23:01.819Z,12.98
2017-10-17T23:25:28.322Z,12.30
2017-10-17T23:27:54.490Z,12.18
2017-10-17T23:30:20.694Z,12.80
2017-10-17T23:32:46.900Z,12.05
2017-10-17T23:35:13.098Z,12.00
2017-10-17T23:37:39.337Z,10.90
2017-10-17T23:40:05.553Z,10.27
2017-10-17T23:42:31.773Z,11.52
2017-10-17T23:44:58.335Z,12.15
2017-10-17T23:47:24.545Z,11.40
2017-10-17T23:49:50.750Z,10.80
2017-10-17T23:52:17.392Z,11.05
2017-10-17T23:54:43.967Z,10.27
2017-10-17T23:57:10.144Z,10.90
2017-10-17T23:59:36.378Z,10.90
